Håll muspekaren över respektive flygplats för att se aktuella METAR och TAF.
Informationen kommer från Aviation Weather Center och vi tar inget ansvar för ev fel.

whatever whatever

I=ILS ((min200ft)/550m), L=LOC(min250ft/800m), V=VOR(min300ft/800m), N=NDB(min300ft/800m), G=GPS, C=CIRC(min500ft/1600m),
Takeoff 500m, rwy lgt 250m, ctr lgt 200m, multi RVR 150m   RWY


SWEDEN

AirportMETARTAF
Borlänge (I32/V14) ESSD 290650Z VRB02KT CAVOK 16/09 Q1012 TAF ESSD 290530Z 2906/2915 19006KT CAVOK
Bromma (I12/I30) ESSB 290650Z 20005KT 160V240 CAVOK 17/09 Q1013 TAF ESSB 290530Z 2906/2915 22006KT CAVOK
Gällivare (I30/N12) ESNG 290650Z 15005KT 110V190 9999 SCT009 BKN012 15/11 Q1011 TAF ESNG 290530Z 2906/2913 10003KT 9999 BKN004 BECMG 2906/2908 SCT020 PROB40 2911/2913 SHRA SCT030CB
Halmstad (I19/N01) ESMT 290650Z 12006KT 090V150 CAVOK 16/11 Q1011 TAF ESMT 290458Z 2906/2915 12008KT 9999 SCT040 TEMPO 2912/2915 RA SCT025CB
Hemavan (I33/?15) B ESUT 290650Z AUTO 24004KT 9999 OVC017/// 11/07 Q1012
Jönköping (I19/V01) ESGJ 290650Z 14007KT CAVOK 15/09 Q1013 TAF ESGJ 290530Z 2906/2915 14004KT CAVOK PROB40 2914/2915 RA
Kalmar (I16/V34) ESMQ 290650Z VRB03KT CAVOK 18/10 Q1013 TAF ESMQ 290530Z 2906/2915 10004KT CAVOK
Karlstad (I03/I21) ESOK 290650Z 20004KT 160V250 9999 FEW029 15/09 Q1012 TAF ESOK 290530Z 2906/2915 19006KT CAVOK
Kiruna (I21/V03) ESNQ 290650Z VRB02KT 9999 FEW002 BKN006 14/13 Q1011
Kramfors (I35/L17) ESNK 290650Z AUTO VRB02KT 9999 OVC005/// 14/14 Q1011
Kristianstad (I19/N01) ESMK 290650Z AUTO /////KT 9999 FEW019/// SCT065/// BKN089/// 18/13 Q1012
Landvetter (I03/I21) ESGG 290650Z 14009KT CAVOK 15/10 Q1011 TAF ESGG 290530Z 2906/3006 14007KT CAVOK PROB40 2914/2918 RA PROB40 2918/2920 SHRA BKN012 BKN025CB PROB40 2920/3003 3000 BR BKN007
Linköping-SAAB (I11/I29) ESSL 290650Z VRB03KT CAVOK 17/10 Q1013 TAF ESSL 290450Z 2905/2915 16010KT CAVOK RMK MIL
Ljungbyhed (I29/V11) ESTL 290650Z 13007KT 9999 BKN048 16/13 Q1011 TAF ESTL 290458Z 2907/2915 12010KT 9999 SCT040 TEMPO 2911/2913 RA SCT025CB TEMPO 2913/2915 RA BKN012 SCT025CB
Luleå (I14/I32) ESPA 290650Z 14010KT CAVOK 16/12 Q1013 TAF ESPA 290445Z 2906/2915 17008KT CAVOK RMK MIL
Lycksele (I14/L32) ESNL 290650Z AUTO 00000KT 9999 OVC004/// 14/11 Q1012
Norrköping (I09/I27) ESSP 290650Z VRB03KT CAVOK 17/08 Q1013 TAF ESSP 290530Z 2906/2915 16005KT CAVOK
Ronneby (I19/N01) ESDF 290650Z 14008KT 110V170 CAVOK 17/12 Q1013 TAF ESDF 290530Z 2905/2915 09004KT CAVOK BECMG 2910/2912 16010KT PROB40 2913/2915 4000 RA BKN012
Skavsta (I26/L08) ESKN 290650Z VRB02KT CAVOK 17/09 Q1013 TAF ESKN 290530Z 2906/3006 26004KT CAVOK BECMG 2909/2911 16010KT BECMG 2921/2923 10004KT
Skelefteå (I28/V10) ESNS 290650Z 20006KT 130V240 CAVOK 19/13 Q1012 TAF ESNS 290530Z 2906/2915 17007KT CAVOK
Skövde (N01/I19) ESGR 290650Z AUTO 14005KT 100V180 9999 NCD 16/09 Q1012
Stockholm-Arlanda (I01LR/I19LR L08/I26) ESSA 290650Z 24008KT CAVOK 17/10 Q1013 NOSIG TAF ESSA 290530Z 2906/3006 20008KT CAVOK
Storuman (I33/V15) ESUD 290650Z AUTO 28003KT 9999 OVC010/// 14/12 Q1012
Sturup (I17/I35) ESMS 290650Z 12009KT 9999 SCT039 16/13 Q1011 TAF ESMS 290456Z 2906/3006 13010KT 9999 SCT030 TEMPO 2908/2911 RA TEMPO 2911/2914 4000 SHRA BKN012 BKN030CB TEMPO 2914/2918 SHRA SCT030TCU BECMG 2914/2917 24008KT
Sundsvall (I16/I34) ESNN 290650Z 12002KT 9999 BKN013 16/13 Q1011 TAF AMD ESNN 290528Z 2906/2915 VRB02KT 9999 BKN012 BECMG 2906/2908 SCT030 BECMG 2907/2909 16010KT PROB40 2909/2915 SHRA BKN030CB
Sveg-ESND (L09)B ESND 290650Z AUTO VRB02KT 9999 ////// ///// Q1011
Säve (I19/N01) ESGP 290650Z 12008KT CAVOK 17/11 Q1011 TAF ESGP 290530Z 2906/2915 12007KT CAVOK PROB40 2914/2915 RA
Såtenäs (I19/N01) ESIB 290650Z 14007KT CAVOK 16/12 Q1012 TAF ESIB 290450Z 2905/2914 14005KT CAVOK RMK MIL
Torsby (L16/L34) ESST 290650Z AUTO VRB02KT 9999 FEW016/// BKN024/// 15/11 Q1012
Trollhättan (I33/N15) ESGT 290650Z 14006KT 9999 SCT018TCU 16/11 Q1012 TAF ESGT 290530Z 2906/2915 25015KT CAVOK
Umeå (I14/I32) ESNU 290650Z 16003KT 020V190 9999 FEW009 BKN088 18/15 Q1011 TAF ESNU 290530Z 2906/2915 VRB02KT 9999 BKN004 BECMG 2906/2907 CAVOK BECMG 2909/2911 17010KT
Vilhelmina (I28/N10) B ESNV 290650Z AUTO VRB03KT 9999 FEW009/// OVC012/// 14/11 Q1011
Visby (I21/V03) ESSV 290650Z 24004KT 140V310 9999 FEW047 18/11 Q1013 TAF ESSV 290530Z 2906/2915 VRB02KT CAVOK
Västerås (I19/V01) ESOW 290650Z 22005KT 160V270 CAVOK 17/11 Q1013 TAF ESOW 290530Z 2906/2915 22006KT CAVOK
Växjö (I19/L01) ESMX 290650Z 14006KT 080V200 CAVOK 17/07 Q1013 TAF ESMX 290530Z 2906/2915 09004KT CAVOK
Ängelholm (I14/N32) ESTA 290650Z 12010KT CAVOK 16/11 Q1011 TAF ESTA 290458Z 2906/2915 12010KT 9999 SCT040 TEMPO 2911/2914 RA SCT025CB TEMPO 2914/2915 RA BKN012 SCT025CB
Örebro (I01/I19) ESOE 290650Z 22004KT 160V280 CAVOK 17/09 Q1013 TAF ESOE 290530Z 2906/2915 20006KT CAVOK
Örnsköldsvik (I12/V30) ESNO 290650Z 12004KT 9999 SCT006 14/14 Q1011 TAF ESNO 290530Z 2906/2915 VRB02KT 1400 BR BKN002 BECMG 2906/2907 CAVOK BECMG 2909/2911 16010KT PROB40 2912/2915 SHRA FEW040CB
Östersund (I12/V30) ESNZ 290650Z 30005KT CAVOK 11/07 Q1011 TAF ESNZ 290530Z 2906/2915 31005KT 9999 SCT025

NORDIC

AirportMETARTAF
Alta (I11) B ENAT 290650Z 00000KT 7000 -RA FEW004 SCT013 BKN019 12/11 Q1014 RERA RMK WIND 700FT 34006KT TAF ENAT 290500Z 2906/2915 35005KT 9999 -RA FEW010 BKN020 TEMPO 2906/2912 SHRA BKN008
Andoya (L14/V21/V32) ENAN 290650Z 34006KT 9000 -RA FEW005 BKN038 10/09 Q1014 TAF ENAN 2906/3006 36008KT 9999 FEW015 BKN030 TEMPO 2906/2924 BKN008 BECMG 2912/2915 03018KT
Aro (I07/L25) B ENML 290650Z 10004KT 9999 FEW005 15/11 Q1009 TAF ENML 290500Z 2906/2915 08007KT 9999 FEW005 PROB30 TEMPO 2910/2915 25010KT SHRA SCT030CB
Banak (I35/L17) ENNA 290650Z 35006KT 6000 -DZ VV007 12/11 Q1014 RMK WIND 1800FT 03007KT TAF ENNA 2906/3006 36008KT 9999 BKN020 TEMPO 2906/2909 2500 -DZ BR BKN004 TEMPO 2909/3006 SHRA BKN008
Bardufors (I28/L10) B ENDU 290650Z 01003KT 330V040 9999 FEW005 SCT010 BKN020 12/11 Q1013 TEMPO BKN012 TAF ENDU 2906/3006 36005KT 9999 FEW002 SCT005 BKN020 TEMPO 2906/2924 BKN012
Bergen (I17/I35) ENBR 290650Z VRB01KT 9999 FEW045 BKN053 13/10 Q1008 NOSIG RMK WIND 1200FT 15005KT TAF ENBR 2906/3006 11007KT 9999 FEW040 BKN060 TEMPO 2912/3006 SHRA SCT020CB BKN040 PROB40 TEMPO 2918/3001 BKN014 BECMG 2919/2922 17015KT BECMG 3000/3003 11007KT
Billund (I09/I27) EKBI 290650Z AUTO 15006KT 120V180 9999NDV -DZ OVC066/// 13/11 Q1008 TAF EKBI 290456Z 2906/3006 12010KT 9999 SCT030 TEMPO 2906/2911 4000 SHRA BKN008 BKN030CB BECMG 2909/2912 22008KT TEMPO 2911/2918 SHRA SCT030TCU TEMPO 3002/3006 -RA BKN008
Björneborg (I30/V12) EFPO 290650Z AUTO 15005KT 120V240 CAVOK 19/12 Q1013 TAF EFPO 290528Z 2906/2915 17005KT CAVOK BECMG 2910/2912 23010KT
Bodö (I07/I25) ENBO 290650Z 27002KT 9999 FEW005 BKN037 11/10 Q1014 NOSIG TAF ENBO 2906/3006 28008KT 9999 FEW008 BKN030 PROB30 TEMPO 2906/2912 BKN014 BECMG 2912/2915 02010KT BECMG 2921/2924 09008KT
Bornholm (I11/I29) EKRN 290650Z 12014KT CAVOK 18/11 Q1012 TAF EKRN 290514Z 2906/2915 12010KT 9999 SCT030 TEMPO 2909/2915 RA BKN012 SCT030CB BECMG 2914/2915 25015G25KT
Bronoysund (L04) ENBN 290650Z 35009KT CAVOK 13/08 Q1013 TAF ENBN 290500Z 2906/2915 02005KT 9999 SCT025 BECMG 2907/2910 36015KT
Enontekis (I21/V03) EFET 290650Z AUTO 15005KT 090V200 9999 BKN020 16/12 Q1013
Esbjerg (I08/I26) EKEB 290650Z AUTO 11006KT 9999NDV -RA FEW007/// BKN018/// 12/12 Q1007 TAF EKEB 290514Z 2906/2915 13010KT 9999 SCT030 TEMPO 2906/2908 RA SCT030CB TEMPO 2908/2911 SHRA BKN009 SCT030CB BECMG 2910/2912 23012KT TEMPO 2911/2915 SHRA SCT030TCU
Faroar (L13/L31) B EKVG 290720Z 11011KT 9999 FEW005 BKN010 BKN060 10/10 Q1000 TAF EKVG 290556Z 2906/2915 12010KT 9999 BKN006 TEMPO 2906/2915 4000 SHRA BR BKN010
Framnes (L19) ENNK 290650Z 23006KT 7000 -RADZ FEW002 OVC005 11/11 Q1013
Hammerfest (L05/L23) ENHF 290650Z VRB03KT 9999 FEW017 BKN055 12/09 Q1014 RMK WIND 1254FT 35007KT TAF ENHF 290500Z 2906/2915 05005KT 9999 SCT004 BKN016 TEMPO 2906/2915 4000 BR BKN004
Haugesund (I14/V32) ENHD 290650Z 13008KT 9999 -DZ FEW035 SCT066 BKN190 13/11 Q1007 TAF ENHD 290500Z 2906/2915 11010KT 9999 FEW030 BKN070 TEMPO 2907/2915 SHRA SCT020CB BKN040
Helsinki (I04/I15/I22/V33) EFHK 290650Z 17005KT 130V210 9999 FEW022 20/14 Q1014 NOSIG TAF EFHK 290536Z 2906/3006 VRB02KT 9999 FEW025 SCT170 BECMG 2906/2908 20012KT BECMG 2917/2919 18002KT PROB30 3001/3004 FEW050CB SCT090 BECMG 3004/3006 12010KT
Hoybuktmoen (I24/V06) ENKR 290650Z 17007KT 9999 FEW017 SCT020 BKN060 17/13 Q1014 RMK WIND 731FT 19008KT TAF ENKR 290500Z 2906/2915 17008KT 9999 SCT020 BKN040
Ivalo (I22/N22) EFIV 290650Z AUTO 20006KT 9999 FEW028 17/12 Q1014
Jyvaskyla (I30/V12) EFJY 290650Z VRB03KT 100V190 CAVOK 19/14 Q1013 TAF EFJY 290528Z 2906/3006 23003KT CAVOK TEMPO 2909/2916 SCT045CB PROB30 TEMPO 2912/2915 6000 TSRA TEMPO 3000/3003 2000 MIFG
Karup (I09/I27) EKKA 290650Z AUTO 12005KT 090V160 9999NDV BKN073/// 15/13 Q1008 TEMPO 4000 RA TAF EKKA 290454Z 2906/3006 11010KT 9999 BKN030 TEMPO 2906/2909 4000 RA SCT020CB TEMPO 2909/2914 3000 RA BKN008 SCT020CB BECMG 2911/2914 22008KT TEMPO 2914/2918 -SHRA SCT020CB BECMG 2921/2924 17012KT TEMPO 3000/3006 3000 RA BKN006
Kastrup (I04/I12/I22/I30) EKCH 290650Z 12014KT 9999 FEW020 SCT030 BKN250 17/14 Q1010 NOSIG TAF EKCH 290456Z 2906/3006 12012KT 9999 SCT030 TEMPO 2906/2909 RA TEMPO 2909/2912 12015G28KT 4000 SHRA BKN012 BKN030CB TEMPO 2912/2918 SHRA SCT030TCU BECMG 2913/2916 22010KT
Kemi (I18/N36) EFKE 290650Z AUTO 13003KT CAVOK 18/13 Q1013 TAF EFKE 290534Z 2906/2915 15006KT CAVOK TEMPO 2910/2915 SHRA SCT030CB
Kittila (I34/L16) EFKT 290650Z AUTO 12005KT 060V170 CAVOK 18/12 Q1013 TAF EFKT 290534Z 2906/2911 15005KT CAVOK
Kristiansand (I04/I22) ENCN 290650Z 04008KT 9999 FEW019 BKN028 13/11 Q1009 TAF ENCN 290500Z 2906/2915 06005KT 9999 SCT020 BKN030 TEMPO 2908/2915 12010KT SHRA SCT020CB BKN030
Kristiansund (I07/V25) ENKB 290650Z 10005KT 050V140 CAVOK 14/10 Q1009 TAF ENKB 290500Z 2906/2915 07008KT 9999 FEW005
Kruunupyy (I19/N01) EFKK 290650Z AUTO 13005KT 100V170 CAVOK 20/13 Q1012 TAF EFKK 282025Z 2821/2823 09002KT CAVOK
Kuopio (I33/V15) EFKU 290650Z AUTO VRB03KT 9999 FEW010 FEW152 17/14 Q1014 TAF EFKU 290535Z 2906/3006 12004KT 9999 SCT015 PROB30 2906/2908 BKN012 TEMPO 2910/2918 7000 SHRA SCT030CB PROB30 2911/2918 4000 TSRA
Leknes (L03) ENLK 290650Z 29005KT 9999 SCT005 SCT011 BKN025 10/10 Q1014
Malmi (V36/N18) EFHF 290650Z 17006KT 100V230 9999 FEW020 BKN200 20/14 Q1014 TAF EFHF 290536Z 2906/2915 VRB02KT 9999 FEW025 SCT170 BECMG 2906/2908 19010KT
Mariehamn (I21/V03) EFMA 290650Z 19006KT 140V220 CAVOK 18/10 Q1013 TAF EFMA 290536Z 2906/2915 21007KT 9999 FEW030
Moirana (L14/32) ENRA 290650Z VRB02KT 9999 VCSH FEW006 BKN027 12/08 Q1013 TAF ENRA 290500Z 2906/2915 VRB05KT 9999 FEW008 BKN030
Namsos (L25/N07) ENNM 290650Z VRB02KT CAVOK 14/08 Q1012
Narvik (I17/V35) B ENEV 290650Z 36006KT 4000 -RADZ FEW003 BKN010 OVC017 11/10 Q1013 RMK WIND 1400FT 02010KT TAF ENEV 290500Z 2906/2915 36005KT 9999 -RA SCT005 BKN015 TEMPO 2906/2909 4000 RADZ BKN005
Odense (I24/06) EKOD 290650Z 17005KT 140V220 9999 SCT012 BKN070 OVC100 14/13 Q1008 TAF EKOD 290659Z 2907/2915 16008KT 9999 BKN030 TEMPO 2907/2911 4000 SHRA BKN006 BKN030CB BECMG 2908/2911 21010KT TEMPO 2911/2915 SHRA SCT030TCU
Orland (I15/I33) ENOL 290650Z 10010KT CAVOK 15/07 Q1011 NOSIG TAF ENOL 2906/3006 10005KT 9999 FEW040 BECMG 3000/3003 12015KT
Oslo (I01/I19) ENGM 290650Z 19005KT 120V240 9999 SCT017 14/09 Q1011 NOSIG TAF ENGM 2906/3006 16005KT 9999 BKN014 BECMG 2906/2908 SCT020 BKN040 TEMPO 2915/3006 SHRA FEW030CB BKN040 PROB40 3002/3006 BKN008
Pammerfors (I24/V06) EFTP 290650Z 16006KT 110V210 9999 FEW024 SCT180 19/13 Q1014 TAF EFTP 290528Z 2906/3006 20005KT CAVOK TEMPO 2909/2915 FEW040CB
Roskilde (I11/I21/03/29) EKRK 290650Z AUTO 13014KT 9999NDV FEW015/// SCT021/// BKN034/// 17/14 Q1009 TAF EKRK 290514Z 2906/2915 12010KT 9999 SCT030 TEMPO 2907/2913 SHRA BKN030CB TEMPO 2913/2915 SHRA SCT030TCU BECMG 2913/2915 24010KT
Rovaniemi (I21/V03) EFRO 290650Z AUTO 15006KT 090V210 CAVOK 18/13 Q1014 TAF EFRO 290534Z 2906/3006 15006KT CAVOK TEMPO 2911/2918 SHRA SCT030CB PROB30 2923/3005 2000 BR BKN001
Rygge (I30/N12) ENRY 290650Z 21009KT 180V250 9999 SCT025 16/10 Q1011 NOSIG TAF ENRY 2906/3006 20008KT 9999 SCT025 TEMPO 2912/3006 SHRA FEW025CB BKN030 PROB40 3000/3006 BKN012
Röros (I32) B ENRO 290650Z 10004KT 050V160 9999 FEW035 13/06 Q1011 TAF ENRO 290500Z 2906/2915 VRB05KT 9999 FEW025 PROB40 TEMPO 2912/2915 SHRA FEW020CB BKN040
Sindal (I27/N09) EKSN 290650Z 13008KT 9999 FEW020 17/11 Q1010 TAF EKSN 290659Z 2907/2915 13008KT 9999 BKN020 TEMPO 2909/2911 SHRA BKN012 BKN030CB
Skagen (L09/L27) ENSK 290650Z 26005KT 5000 RA BR FEW002 SCT014 BKN018 10/10 Q1014
Sonderborg (I32/N14) EKSB 290650Z 12010KT 9999 -RA BKN008 14/13 Q1007 TAF EKSB 290555Z 2906/2915 13010KT 8000 SCT025 TEMPO 2906/2908 RA BKN012 SCT030CB BECMG 2908/2911 22010KT TEMPO 2908/2912 SHRA SCT030TCU
Sorkjosen (15/33) ENSR 290620Z 29003KT 9999 -DZ FEW008 BKN017 11/09 Q1014 WIND 1119FT 07007KT
Sorstokken (L15/V33) ENSO 290650Z 12005KT CAVOK 14/10 Q1008 TAF ENSO 290500Z 2906/2915 12007KT 9999 FEW040 SCT070 PROB40 TEMPO 2909/2915 SHRA SCT020CB BKN040
Stavanger (I11/I18/I36/V29) ENZV 290650Z 12004KT 9999 FEW040 BKN092 14/09 Q1007 NOSIG TAF ENZV 2906/3006 12008KT 9999 FEW030 BKN060 TEMPO 2906/3006 SHRA SCT020CB BKN040 TEMPO 2912/3006 14015G25KT PROB40 TEMPO 2918/3006 BKN014 PROB30 TEMPO 3000/3006 TS
Stokka (L21) ENST 290650Z 36006KT 9999 FEW020 13/07 Q1013 RMK WIND 300FT VRB05KT
Svalbard (I10/L28) C ENSB 290650Z 25010KT 9999 FEW006 SCT020 BKN040 08/05 Q1014 NOSIG RMK WIND 1400FT 26005KT TAF ENSB 2906/3006 27008KT 9999 FEW015 BKN035
Svolvaer (L01) ENSH 290650Z 02009KT 9999 -RA FEW004 SCT010 BKN018 11/10 Q1014 TAF ENSH 290500Z 2906/2915 36005KT 9999 SCT010 BKN018 TEMPO 2906/2909 RADZ BKN008
Torp (I18/I36) ENTO 290650Z 18008KT 9999 FEW020 15/10 Q1011 TAF ENTO 2906/3006 20008KT 9999 FEW025 TEMPO 2912/3006 SHRA FEW025CB BKN030 PROB40 3000/3006 BKN010
Tromsö (I01/I19) B ENTC 290650Z 02011KT 9999 FEW020 SCT025 BKN050 11/08 Q1014 NOSIG RMK WIND 2600FT 09008KT TAF ENTC 2906/3006 03008KT 9999 FEW008 BKN030 TEMPO 2906/2909 -RADZ BKN008
Trondheim (I09/I27) B ENVA 290650Z VRB02KT CAVOK 14/09 Q1012 NOSIG RMK WIND 670FT 07005KT TAF ENVA 2906/3006 11005KT 9999 FEW050 PROB40 TEMPO 3000/3006 15015KT
Uleåborg (I12/V30) EFOU 290650Z AUTO 15008KT 9999 FEW008/// BKN010/// 17/14 Q1013 TAF AMD EFOU 290654Z 2906/3006 12007KT CAVOK TEMPO 2906/2909 9999 BKN010 TEMPO 2909/2918 SHRA SCT040CB PROB30 2919/2921 TSRA SCT040CB
Vamdrup (N01/N19) EKVD 290702Z 16006KT 120V200 4000 -RA SCT006 BKN020 13/12 Q1008 TAF EKVD 290659Z 2907/2915 13008KT 9999 BKN040 TEMPO 2907/2911 4000 SHRA BKN006 BKN030CB BECMG 2907/2910 21010KT TEMPO 2911/2915 SHRA SCT030TCU
Vojens (I11/I29) EKSP 290657Z 14007KT 9999 -RA FEW008 BKN023 BKN050 13/12 Q1008 TEMPO 3000 BKN008 TAF EKSP 290458Z 2906/3006 14012KT 9999 -RA SCT012 BKN030 TEMPO 2906/2910 3000 RA BKN008 SCT020CB FM291000 24012KT 9999 SCT020 TEMPO 2910/2918 23015G25KT 6000 SHRA BKN020CB BECMG 2921/2923 17010KT -RA BECMG 2923/3002 19016KT 3000 RA BKN008
Wasa (I16/V34) EFVA 290650Z AUTO 14006KT 100V170 9999 FEW092/// 19/14 Q1012 TAF EFVA 290528Z 2906/3006 20005KT CAVOK TEMPO 2908/2912 SCT025CB PROB30 TEMPO 2909/2912 6000 TSRA
Åbo (I26/V08) EFTU 290650Z AUTO 22006KT 160V270 9999 FEW021/// 19/13 Q1013 TAF EFTU 290536Z 2906/3006 21007KT 9999 BKN011 BECMG 2906/2907 SCT020 TEMPO 2923/3005 6000 SHRA SCT040CB BKN060 PROB30 TEMPO 2923/3005 TSRA
Ålborg (I08/I26) EKYT 290650Z 12011KT 9999 FEW020 BKN080 18/12 Q1009 TAF EKYT 290454Z 2906/3006 11008KT 9999 BKN030 TEMPO 2907/2911 4000 RA SCT020CB TEMPO 2911/2917 3000 RA BKN008 SCT020CB BECMG 2915/2918 23008KT BECMG 3000/3003 16015KT TEMPO 3001/3006 3000 RA BKN006
Ålesund (I25/V07) B ENAL 290650Z 05009KT CAVOK 13/10 Q1009 TAF ENAL 290500Z 2906/2915 06008KT CAVOK PROB40 2912/2914 26012KT
Århus (I10/I28) EKAH 290650Z AUTO 12005KT 090V150 9999NDV BKN083/// 16/10 Q1009 TAF EKAH 290456Z 2906/3006 12010KT 9999 SCT020 TEMPO 2908/2911 RA TEMPO 2911/2914 4000 SHRA BKN012 BKN030CB BECMG 2913/2916 20008KT TEMPO 2914/2918 SHRA SCT030TCU TEMPO 3004/3006 -RA BKN012

EUROPE

AirportMETARTAF
Augsburg-EDMA (I25/G07) B EDMA 290650Z 26010KT CAVOK 21/12 Q1017 TAF EDMA 290500Z 2906/2915 25007KT 9999 FEW040 PROB30 TEMPO 2908/2910 4000 SHRA BKN030TCU
Birmingham-EGBB (I15/I33) EGBB 290650Z 20006KT CAVOK 12/10 Q1008 TAF EGBB 290455Z 2906/3006 23005KT 9999 FEW010 BECMG 2906/2909 20015KT TEMPO 2907/2918 22020G32KT 7000 RA BKN014 PROB30 TEMPO 2918/2921 25015G25KT 9000 SHRA BKN012 BECMG 2920/2923 21005KT PROB30 3000/3005 5000 BR BKN004
Dortmund (I06/I24) EDLW 290650Z 23013KT 9999 FEW019 SCT033 15/10 Q1012 TAF EDLW 290500Z 2906/3006 23011KT 9999 FEW025 SCT035 TEMPO 2909/2913 24015G25KT BECMG 2918/2921 18006KT
Eindhoven-EHEH (I04/I22) EHEH 290715Z AUTO 23014KT 190V270 9999 FEW014 BKN017 BKN026 15/12 Q1011 WHT 23012G22KT 9999 SCT013 BKN015 BKN020 TAF EHEH 290554Z 2906/3012 21012KT SCT012 BKN015 BECMG 2907/2909 SCT018 BKN022 BECMG 2909/2911 SCT025 BECMG 3006/3008 BKN015 PROB40 TEMPO 3007/3012 3000 RADZ SCT012 BKN015
Kardla (N14/N32) B EEKA 290650Z 03006KT 9999 SCT023 20/15 Q1014 TAF EEKA 290300Z 2904/2910 21006KT 9999 SCT015 TEMPO 2904/2907 BKN006
Krakow (I25) EPKK 290700Z VRB02KT CAVOK 20/15 Q1017 TAF EPKK 290530Z 2906/3006 16008KT CAVOK PROB30 TEMPO 2918/2922 BKN020CB PROB30 TEMPO 3001/3006 2500 BR
Kuressaare (V17/V35) EEKE 290650Z 19005KT 160V250 CAVOK 19/13 Q1015 TAF EEKE 290500Z 2906/2912 22006KT 9999 SCT025 TEMPO 2909/2912 15010KT
Köln (I14/I24/I32) EDDK 290650Z 27016KT 9999 SCT033 SCT300 17/11 Q1013 NOSIG TAF EDDK 290500Z 2906/3012 25010KT 9999 SCT030 BECMG 2919/2921 14005KT BECMG 3006/3008 20008KT
Le Bourget-LFPB (I07/I27/L25/ 03/21/09) LFPB 290700Z AUTO 24007KT 210V300 9999 FEW020 16/10 Q1016 NOSIG TAF LFPB 290500Z 2906/3006 25007KT CAVOK TEMPO 2914/2916 22015G25KT BECMG 3005/3006 BKN023
Linz-LOWL (I09/I27) LOWL 290650Z VRB02KT 9999 FEW080 19/14 Q1017 NOSIG TAF LOWL 290515Z 2906/3006 30005KT 9999 FEW050 SCT120 TX27/2914Z TN17/2906Z TEMPO 2915/2921 FEW050CB
Pardubice-LKPD (I27) LKPD 290700Z VRB07KT CAVOK 24/13 Q1014 NOSIG RMK BLU BLU TAF LKPD 290500Z 2906/3006 14004KT CAVOK TEMPO 2907/2911 SCT035 BECMG 2907/2909 24008KT TEMPO 2908/2915 27010G20KT TEMPO 2911/2916 SHRA BKN030TCU BECMG 2911/2913 30010KT BECMG 2916/2918 VRB02KT BECMG 3004/3006 14006KT
Parnu (V03/V21) EEPU 290650Z 21005KT 170V230 CAVOK 21/15 Q1015
Prag-LKPR (I06/I13/I24/I31) LKPR 290700Z 27004KT 230V310 CAVOK 20/16 Q1015 NOSIG TAF LKPR 290500Z 2906/3012 16005KT CAVOK BECMG 2907/2909 22007KT 9999 SCT040 TEMPO 2910/2918 27012KT 9999 -SHRA BKN030TCU PROB40 TEMPO 2912/2918 32020KT 4000 TSRA BKN020CB BECMG 2918/2921 VRB02KT CAVOK BECMG 3008/3010 23007KT 9999 SCT040 TEMPO 3010/3012 27015KT 9999 -SHRA BKN030TCU
Reykjavik-BIRK (I19/L13/ 01/06/24/31) BIRK 290700Z 13008KT 9999 -RA FEW011 BKN019 OVC028 09/06 Q0995 TAF BIRK 290442Z 2906/3006 03005KT 9999 SCT025 BKN035 TX14/2913Z TN07/2906Z TEMPO 2906/2920 SHRA SCT015CB BKN025 BECMG 2907/2909 13015KT BECMG 2913/2916 33010KT
Salzburg-LOWS (I16) LOWS 290650Z 15004KT 9999 FEW060 BKN080 18/12 Q1017 NOSIG TAF LOWS 290515Z 2906/3006 15008KT 9999 FEW060 SCT120 TX25/2914Z TN15/3000Z BECMG 2907/2909 32006KT TEMPO 2911/3006 SCT050 BKN120 PROB30 TEMPO 2914/2918 SCT050 FEW060CB BKN100 BECMG 2918/2920 15005KT TEMPO 3000/3006 29008KT -SHRA SCT040 FEW050TCU BKN090
St Petersburg (I10/I28) B ULLI 290700Z 27003MPS CAVOK 20/14 Q1014 R88/090060 NOSIG TAF ULLI 290456Z 2906/3006 25003MPS 9999 SCT020 TEMPO 2908/2918 32003G08MPS -SHRA BKN015 SCT030CB BECMG 2919/2921 3000 BR SCT010 TEMPO 2921/3006 0300 FG VV002
Tallin (I08/I26) EETN 290720Z 20007KT 150V270 9999 FEW030 21/11 Q1014 NOSIG TAF EETN 290520Z 2906/3006 25006KT CAVOK PROB30 TEMPO 2906/2909 BKN010 BECMG 2909/2911 35010KT SCT040CB PROB30 TEMPO 2911/2916 4000 TSRA BECMG 2916/2918 11006KT BECMG 3001/3003 SCT025CB BKN030
Ulenurme (N26/C08) B EETU 290650Z VRB03KT 9999 FEW010 SCT022 18/15 Q1015
Vilnius EYVI 290650Z VRB05KT CAVOK 21/11 Q1015 NOSIG TAF EYVI 290500Z 2906/3006 VRB04KT 9000 SCT040 TEMPO 2906/2910 33014KT TEMPO 2910/2918 33014KT BKN030CB TEMPO 3000/3003 1500 MIFG BR
Warszawa (I11/I33/V15/V29) EPWA 290700Z 19005KT 150V210 CAVOK 22/15 Q1015 NOSIG TAF EPWA 290530Z 2906/3006 VRB02KT CAVOK BECMG 2906/2909 19010KT PROB40 TEMPO 2911/2917 SCT040TCU
Wroclaw (I29) EPWR 290700Z 15011KT CAVOK 21/14 Q1014 TAF EPWR 290530Z 2906/3006 16008KT CAVOK TEMPO 2909/2921 SHRA BKN025CB PROB40 TEMPO 2911/2916 VRB16G28KT 4500 TSRA BKN014CB BECMG 2918/2920 30005KT PROB40 3000/3005 3000 BR

OTHER

AirportMETARTAF